createdAt,value
2017-12-12T00:00:46.744Z,33.90
2017-12-12T00:01:47.695Z,33.90
2017-12-12T00:02:46.764Z,35.50
2017-12-12T00:03:46.781Z,36.00
2017-12-12T00:04:46.804Z,34.60
2017-12-12T00:05:46.739Z,35.20
2017-12-12T00:06:46.833Z,35.40
2017-12-12T00:07:46.743Z,35.90
2017-12-12T00:08:47.604Z,35.00
2017-12-12T00:09:47.730Z,36.90
2017-12-12T00:11:12.265Z,34.70
2017-12-12T00:12:13.255Z,36.90
2017-12-12T00:13:12.401Z,35.80
2017-12-12T00:14:12.536Z,35.70
2017-12-12T00:15:36.674Z,36.70
2017-12-12T00:16:37.601Z,36.50
2017-12-12T00:17:37.492Z,37.10
2017-12-12T00:18:37.599Z,36.90
2017-12-12T00:19:37.618Z,35.20
2017-12-12T00:20:37.667Z,35.80
2017-12-12T00:21:37.690Z,34.30
2017-12-12T00:22:36.731Z,35.50
2017-12-12T00:23:36.854Z,34.50
2017-12-12T00:24:36.976Z,33.00
2017-12-12T00:25:37.092Z,33.30
2017-12-12T00:26:37.352Z,33.00
2017-12-12T00:27:37.218Z,33.30
2017-12-12T00:28:37.174Z,32.80
2017-12-12T00:29:37.146Z,34.30
2017-12-12T00:30:37.137Z,34.20
2017-12-12T00:31:37.086Z,35.30
2017-12-12T00:32:37.103Z,36.70
2017-12-12T00:33:37.261Z,35.70
2017-12-12T00:34:37.319Z,35.80
2017-12-12T00:35:37.285Z,36.00
2017-12-12T00:36:37.398Z,34.60
2017-12-12T00:37:37.514Z,35.20
2017-12-12T00:38:37.550Z,35.90
2017-12-12T00:39:37.462Z,34.50
2017-12-12T00:40:36.687Z,35.50
2017-12-12T00:41:36.694Z,34.50
2017-12-12T00:42:38.070Z,35.20
2017-12-12T00:43:37.102Z,33.40
2017-12-12T00:44:37.227Z,35.00
2017-12-12T00:45:37.386Z,34.60
2017-12-12T00:46:37.598Z,35.50
2017-12-12T00:47:37.544Z,34.50
2017-12-12T00:48:36.600Z,34.10
2017-12-12T00:49:37.516Z,35.00
2017-12-12T00:50:38.170Z,33.70
2017-12-12T00:51:37.155Z,34.90
2017-12-12T00:52:37.314Z,32.50
2017-12-12T00:53:37.874Z,32.70
2017-12-12T00:54:36.867Z,32.50
2017-12-12T00:55:36.810Z,32.00
2017-12-12T00:56:36.923Z,32.30
2017-12-12T00:57:36.950Z,32.20
2017-12-12T00:58:37.126Z,30.80
2017-12-12T00:59:37.034Z,29.80
2017-12-12T01:00:36.984Z,28.40
2017-12-12T01:01:37.122Z,30.10
2017-12-12T01:02:37.229Z,30.10
2017-12-12T01:03:37.322Z,30.00
2017-12-12T01:04:37.187Z,28.20
2017-12-12T01:05:37.192Z,28.80
2017-12-12T01:06:37.203Z,29.00
2017-12-12T01:07:37.318Z,28.00
2017-12-12T01:08:37.505Z,28.70
2017-12-12T01:09:37.585Z,28.40
2017-12-12T01:10:37.522Z,27.30
2017-12-12T01:11:37.485Z,26.90
2017-12-12T01:12:37.377Z,27.40
2017-12-12T01:13:37.665Z,27.40
2017-12-12T01:14:37.660Z,26.40
2017-12-12T01:15:36.845Z,26.90
2017-12-12T01:16:36.698Z,27.30
2017-12-12T01:17:37.525Z,27.60
2017-12-12T01:18:36.699Z,27.70
2017-12-12T01:19:36.706Z,27.70
2017-12-12T01:20:36.758Z,26.90
2017-12-12T01:21:36.964Z,29.30
2017-12-12T01:22:36.894Z,27.40
2017-12-12T01:23:36.806Z,29.20
2017-12-12T01:24:36.812Z,29.20
2017-12-12T01:25:36.884Z,26.60
2017-12-12T01:26:36.966Z,28.70
2017-12-12T01:27:37.022Z,26.20
2017-12-12T01:28:36.889Z,26.60
2017-12-12T01:29:36.909Z,26.90
2017-12-12T01:30:36.904Z,26.90
2017-12-12T01:32:02.783Z,26.90
2017-12-12T01:33:03.674Z,27.10
2017-12-12T01:34:03.588Z,26.30
2017-12-12T01:35:03.707Z,26.30
2017-12-12T01:36:03.704Z,26.20
2017-12-12T01:37:03.658Z,26.70
2017-12-12T01:38:03.606Z,28.10
2017-12-12T01:39:03.617Z,27.90
2017-12-12T01:40:03.660Z,26.70
2017-12-12T01:41:03.710Z,26.70
2017-12-12T01:42:03.702Z,26.20
2017-12-12T01:43:03.629Z,25.80
2017-12-12T01:44:03.816Z,27.40
2017-12-12T01:45:02.799Z,26.40
2017-12-12T01:46:02.919Z,26.90
2017-12-12T01:47:02.794Z,26.60
2017-12-12T01:48:03.723Z,27.30
2017-12-12T01:49:02.882Z,27.00
2017-12-12T01:50:03.068Z,26.80
2017-12-12T01:51:02.887Z,26.50
2017-12-12T01:52:02.842Z,26.80
2017-12-12T01:53:26.629Z,25.80
2017-12-12T01:54:27.546Z,25.30
2017-12-12T01:55:27.531Z,25.30
2017-12-12T01:56:27.451Z,25.80
2017-12-12T01:57:27.462Z,25.70
2017-12-12T01:58:27.600Z,25.90
2017-12-12T01:59:27.542Z,25.50
2017-12-12T02:00:27.479Z,27.50
2017-12-12T02:01:26.693Z,24.90
2017-12-12T02:02:26.733Z,25.10
2017-12-12T02:03:26.898Z,26.20
2017-12-12T02:04:26.826Z,26.40
2017-12-12T02:05:51.577Z,25.80
2017-12-12T02:06:51.811Z,24.20
2017-12-12T02:07:51.773Z,25.20
2017-12-12T02:08:51.901Z,26.50
2017-12-12T02:10:16.770Z,25.90
2017-12-12T02:11:16.693Z,24.90
2017-12-12T02:12:17.738Z,23.30
2017-12-12T02:13:17.748Z,25.70
2017-12-12T02:14:17.744Z,25.70
2017-12-12T02:15:18.805Z,25.50
2017-12-12T02:16:16.963Z,24.90
2017-12-12T02:17:16.951Z,25.00
2017-12-12T02:18:16.936Z,24.50
2017-12-12T02:19:16.899Z,24.80
2017-12-12T02:20:16.857Z,23.40
2017-12-12T02:21:17.710Z,24.80
2017-12-12T02:22:17.561Z,26.10
2017-12-12T02:23:17.721Z,22.80
2017-12-12T02:24:42.636Z,23.80
2017-12-12T02:25:42.606Z,24.50
2017-12-12T02:26:42.626Z,24.40
2017-12-12T02:27:42.713Z,24.80
2017-12-12T02:28:42.876Z,26.20
2017-12-12T02:29:42.807Z,23.70
2017-12-12T02:30:43.854Z,23.30
2017-12-12T02:31:42.924Z,23.50
2017-12-12T02:32:43.008Z,25.00
2017-12-12T02:33:42.983Z,24.80
2017-12-12T02:34:42.849Z,24.40
2017-12-12T02:35:42.885Z,23.80
2017-12-12T02:36:42.873Z,24.20
2017-12-12T02:37:42.765Z,25.30
2017-12-12T02:38:42.861Z,24.80
2017-12-12T02:39:42.808Z,23.80
2017-12-12T02:40:42.970Z,24.20
2017-12-12T02:41:43.626Z,25.70
2017-12-12T02:42:43.518Z,24.60
2017-12-12T02:43:42.626Z,23.70
2017-12-12T02:44:42.597Z,24.60
2017-12-12T02:45:43.462Z,25.00
2017-12-12T02:46:43.498Z,24.70
2017-12-12T02:47:43.506Z,23.60
2017-12-12T02:48:42.716Z,25.60
2017-12-12T02:49:42.601Z,25.50
2017-12-12T02:50:43.504Z,25.40
2017-12-12T02:51:43.495Z,25.00
2017-12-12T02:52:42.571Z,24.40
2017-12-12T02:53:42.953Z,26.00
2017-12-12T02:54:42.877Z,23.70
2017-12-12T02:55:43.016Z,25.10
2017-12-12T02:56:42.917Z,24.10
2017-12-12T02:57:42.818Z,27.00
2017-12-12T02:58:42.957Z,24.90
2017-12-12T02:59:43.003Z,26.50
2017-12-12T03:00:43.080Z,26.90
2017-12-12T03:01:43.183Z,26.40
2017-12-12T03:02:43.213Z,24.30
2017-12-12T03:03:43.386Z,24.70
2017-12-12T03:04:43.300Z,24.90
2017-12-12T03:05:43.333Z,25.90
2017-12-12T03:06:43.231Z,25.10
2017-12-12T03:07:43.424Z,26.70
2017-12-12T03:08:42.631Z,24.20
2017-12-12T03:09:43.653Z,27.70
2017-12-12T03:10:42.568Z,25.70
2017-12-12T03:11:42.551Z,27.20
2017-12-12T03:12:43.629Z,25.50
2017-12-12T03:13:42.622Z,27.20
2017-12-12T03:14:42.713Z,24.30
2017-12-12T03:15:42.800Z,24.80
2017-12-12T03:16:42.854Z,26.60
2017-12-12T03:19:25.455Z,25.50
2017-12-12T03:20:26.342Z,25.90
2017-12-12T03:21:26.570Z,25.70
2017-12-12T03:22:25.486Z,25.10
2017-12-12T03:23:50.003Z,25.60
2017-12-12T03:24:50.007Z,24.60
2017-12-12T03:25:50.852Z,25.60
2017-12-12T03:26:51.192Z,24.20
2017-12-12T03:27:50.182Z,24.80
2017-12-12T03:28:50.160Z,24.40
2017-12-12T03:29:50.116Z,25.50
2017-12-12T03:30:50.086Z,26.10
2017-12-12T03:31:50.236Z,24.00
2017-12-12T03:32:50.086Z,25.30
2017-12-12T03:33:50.091Z,26.00
2017-12-12T03:34:50.967Z,25.30
2017-12-12T03:35:51.542Z,24.20
2017-12-12T03:36:50.675Z,25.50
2017-12-12T03:37:50.592Z,25.50
2017-12-12T03:38:50.574Z,25.60
2017-12-12T03:39:50.399Z,25.00
2017-12-12T03:40:50.253Z,25.60
2017-12-12T03:41:50.205Z,24.30
2017-12-12T03:42:50.094Z,26.10
2017-12-12T03:43:50.001Z,24.00
2017-12-12T03:44:50.918Z,25.20
2017-12-12T03:45:50.948Z,25.60
2017-12-12T03:46:50.929Z,23.70
2017-12-12T03:47:50.846Z,23.80
2017-12-12T03:48:50.930Z,24.20
2017-12-12T03:49:50.809Z,24.90
2017-12-12T03:50:50.660Z,25.20
2017-12-12T03:51:50.904Z,23.00
2017-12-12T03:52:51.519Z,25.30
2017-12-12T03:53:50.592Z,23.00
2017-12-12T03:54:50.458Z,23.60
2017-12-12T03:55:50.401Z,23.40
2017-12-12T03:56:50.347Z,23.70
2017-12-12T03:57:50.440Z,23.10
2017-12-12T03:58:50.390Z,22.60
2017-12-12T03:59:50.170Z,24.70
2017-12-12T04:00:50.075Z,23.40
2017-12-12T04:01:50.181Z,22.90
2017-12-12T04:02:50.063Z,44.90
2017-12-12T04:03:51.012Z,22.70
2017-12-12T04:04:51.022Z,22.40
2017-12-12T04:05:50.012Z,22.30
2017-12-12T04:06:51.273Z,22.30
2017-12-12T04:07:50.365Z,19.90
2017-12-12T04:08:50.299Z,21.10
2017-12-12T04:09:50.203Z,20.60
2017-12-12T04:10:50.165Z,20.60
2017-12-12T04:11:50.153Z,20.40
2017-12-12T04:12:50.211Z,20.30
2017-12-12T04:13:50.062Z,21.30
2017-12-12T04:14:50.146Z,20.70
2017-12-12T04:15:50.307Z,21.20
2017-12-12T04:16:50.227Z,20.60
2017-12-12T04:17:50.472Z,22.30
2017-12-12T04:18:50.453Z,70.10
2017-12-12T04:19:50.463Z,25.40
2017-12-12T04:21:19.153Z,20.60
2017-12-12T04:22:44.894Z,20.70
2017-12-12T04:23:46.304Z,21.20
2017-12-12T04:24:45.171Z,20.70
2017-12-12T04:25:45.111Z,23.30
2017-12-12T04:26:45.144Z,22.00
2017-12-12T04:27:45.225Z,20.50
2017-12-12T04:28:45.293Z,21.70
2017-12-12T04:29:45.634Z,23.20
2017-12-12T04:30:45.704Z,23.30
2017-12-12T04:31:45.817Z,23.40
2017-12-12T04:32:45.689Z,23.00
2017-12-12T04:33:45.777Z,24.50
2017-12-12T04:34:45.819Z,22.90
2017-12-12T04:35:45.867Z,23.40
2017-12-12T04:36:46.278Z,24.80
2017-12-12T04:37:45.299Z,22.70
2017-12-12T04:38:45.236Z,24.00
2017-12-12T04:39:45.378Z,23.90
2017-12-12T04:40:45.499Z,24.40
2017-12-12T04:41:45.350Z,23.80
2017-12-12T04:42:45.156Z,24.90
2017-12-12T04:43:45.257Z,24.60
2017-12-12T04:44:45.458Z,23.90
2017-12-12T04:45:45.378Z,22.90
2017-12-12T04:46:45.274Z,25.10
2017-12-12T04:47:45.198Z,24.20
2017-12-12T04:48:45.237Z,25.10
2017-12-12T04:49:45.202Z,22.10
2017-12-12T04:51:09.834Z,22.70
2017-12-12T04:52:09.860Z,22.40
2017-12-12T04:53:09.954Z,22.00
2017-12-12T04:54:10.092Z,23.90
2017-12-12T04:55:10.125Z,23.30
2017-12-12T04:56:10.091Z,23.10
2017-12-12T04:57:10.223Z,24.50
2017-12-12T04:58:10.297Z,24.70
2017-12-12T04:59:10.227Z,23.80
2017-12-12T05:00:10.372Z,23.10
2017-12-12T05:01:10.546Z,22.60
2017-12-12T05:02:10.527Z,22.80
2017-12-12T05:03:10.461Z,23.70
2017-12-12T05:04:10.366Z,23.70
2017-12-12T05:05:10.488Z,23.50
2017-12-12T05:06:10.453Z,21.90
2017-12-12T05:07:10.691Z,24.20
2017-12-12T05:08:09.774Z,23.90
2017-12-12T05:09:09.841Z,24.70
2017-12-12T05:10:35.103Z,23.90
2017-12-12T05:11:35.244Z,25.20
2017-12-12T05:12:35.466Z,24.50
2017-12-12T05:13:35.585Z,24.80
2017-12-12T05:14:35.867Z,24.80
2017-12-12T05:15:36.070Z,24.80
2017-12-12T05:16:35.312Z,26.70
2017-12-12T05:17:35.521Z,26.50
2017-12-12T05:18:35.499Z,26.90
2017-12-12T05:19:35.727Z,27.20
2017-12-12T05:20:35.827Z,27.00
2017-12-12T05:21:35.945Z,26.20
2017-12-12T05:22:35.207Z,28.00
2017-12-12T05:23:35.163Z,28.60
2017-12-12T05:24:35.116Z,27.10
2017-12-12T05:25:58.974Z,27.60
2017-12-12T05:26:59.934Z,28.10
2017-12-12T05:27:59.055Z,29.00
2017-12-12T05:28:59.075Z,28.70
2017-12-12T05:29:59.108Z,28.70
2017-12-12T05:30:59.142Z,26.10
2017-12-12T05:31:59.097Z,28.60
2017-12-12T05:32:58.998Z,26.30
2017-12-12T05:33:59.876Z,27.40
2017-12-12T05:34:59.704Z,25.90
2017-12-12T05:35:59.505Z,28.40
2017-12-12T05:36:59.523Z,27.40
2017-12-12T05:37:59.524Z,27.90
2017-12-12T05:38:59.438Z,26.00
2017-12-12T05:39:59.342Z,27.80
2017-12-12T05:40:59.389Z,27.00
2017-12-12T05:41:59.545Z,26.30
2017-12-12T05:42:59.408Z,26.20
2017-12-12T05:43:59.284Z,26.50
2017-12-12T05:44:59.342Z,23.80
2017-12-12T05:45:59.332Z,25.40
2017-12-12T05:46:59.246Z,25.00
2017-12-12T05:47:59.198Z,26.60
2017-12-12T05:48:59.231Z,24.40
2017-12-12T05:49:59.238Z,25.50
2017-12-12T05:50:59.255Z,24.60
2017-12-12T05:51:59.441Z,25.00
2017-12-12T05:52:59.432Z,25.10
2017-12-12T05:53:59.404Z,24.40
2017-12-12T05:54:59.416Z,25.00
2017-12-12T05:55:59.342Z,24.80
2017-12-12T05:56:59.346Z,25.80
2017-12-12T05:57:59.429Z,22.60
2017-12-12T05:58:59.335Z,24.00
2017-12-12T05:59:59.200Z,24.30
2017-12-12T06:00:59.233Z,23.10
2017-12-12T06:01:59.340Z,24.10
2017-12-12T06:02:59.341Z,23.50
2017-12-12T06:03:59.176Z,23.50
2017-12-12T06:04:59.275Z,23.10
2017-12-12T06:05:59.387Z,22.20
2017-12-12T06:06:59.279Z,24.80
2017-12-12T06:07:59.270Z,22.60
2017-12-12T06:08:59.191Z,23.70
2017-12-12T06:09:59.614Z,23.30
2017-12-12T06:10:59.664Z,21.50
2017-12-12T06:11:59.706Z,24.40
2017-12-12T06:12:59.627Z,24.20
2017-12-12T06:13:59.771Z,21.70
2017-12-12T06:14:59.830Z,23.40
2017-12-12T06:15:59.757Z,23.50
2017-12-12T06:16:59.818Z,25.00
2017-12-12T06:17:59.764Z,22.60
2017-12-12T06:18:59.820Z,22.30
2017-12-12T06:19:59.760Z,21.50
2017-12-12T06:20:59.936Z,20.50
2017-12-12T06:21:59.079Z,22.80
2017-12-12T06:22:59.278Z,19.70
2017-12-12T06:24:23.439Z,19.80
2017-12-12T06:25:23.498Z,20.60
2017-12-12T06:26:23.568Z,20.00
2017-12-12T06:27:23.689Z,20.00
2017-12-12T06:28:23.749Z,21.50
2017-12-12T06:30:13.588Z,19.60
2017-12-12T06:31:14.561Z,17.80
2017-12-12T06:32:13.701Z,19.20
2017-12-12T06:33:38.528Z,18.60
2017-12-12T06:34:38.657Z,18.90
2017-12-12T06:35:38.641Z,16.70
2017-12-12T06:36:38.746Z,16.20
2017-12-12T06:37:38.982Z,17.00
2017-12-12T06:38:38.926Z,17.40
2017-12-12T06:40:02.546Z,16.80
2017-12-12T06:41:03.609Z,18.00
2017-12-12T06:42:02.765Z,16.10
2017-12-12T06:43:02.883Z,16.00
2017-12-12T06:44:02.903Z,15.80
2017-12-12T06:45:02.924Z,16.60
2017-12-12T06:46:02.956Z,16.80
2017-12-12T06:47:02.910Z,15.70
2017-12-12T06:48:02.897Z,14.80
2017-12-12T06:49:02.799Z,16.90
2017-12-12T06:50:02.830Z,16.10
2017-12-12T06:51:02.867Z,16.50
2017-12-12T06:52:03.095Z,15.00
2017-12-12T06:53:03.368Z,12.60
2017-12-12T06:54:03.294Z,15.30
2017-12-12T06:55:03.242Z,14.60
2017-12-12T06:56:03.044Z,13.70
2017-12-12T06:57:03.073Z,15.80
2017-12-12T06:58:26.677Z,16.40
2017-12-12T06:59:27.552Z,16.30
2017-12-12T07:00:27.499Z,15.70
2017-12-12T07:01:26.658Z,16.10
2017-12-12T07:02:27.498Z,15.60
2017-12-12T07:03:27.491Z,15.40
2017-12-12T07:04:27.453Z,15.50
2017-12-12T07:05:27.271Z,15.10
2017-12-12T07:06:27.391Z,16.50
2017-12-12T07:07:27.475Z,17.30
2017-12-12T07:08:27.597Z,15.70
2017-12-12T07:09:26.708Z,15.40
2017-12-12T07:10:26.750Z,13.40
2017-12-12T07:11:27.656Z,14.60
2017-12-12T07:12:27.699Z,14.90
2017-12-12T07:13:26.740Z,13.50
2017-12-12T07:14:26.898Z,14.60
2017-12-12T07:15:26.887Z,14.00
2017-12-12T07:16:27.101Z,15.30
2017-12-12T07:17:27.176Z,14.90
2017-12-12T07:18:27.265Z,15.90
2017-12-12T07:19:27.503Z,14.00
2017-12-12T07:20:27.536Z,16.80
2017-12-12T07:21:51.790Z,10.80
2017-12-12T07:22:51.873Z,14.50
2017-12-12T07:23:51.983Z,13.90
2017-12-12T07:24:52.247Z,14.10
2017-12-12T07:25:51.386Z,15.60
2017-12-12T07:26:51.528Z,16.10
2017-12-12T07:27:51.701Z,15.90
2017-12-12T07:28:51.875Z,15.60
2017-12-12T07:29:51.921Z,16.80
2017-12-12T07:30:52.117Z,16.90
2017-12-12T07:31:52.157Z,16.80
2017-12-12T07:32:52.246Z,16.00
2017-12-12T07:33:52.254Z,15.60
2017-12-12T07:34:51.309Z,17.70
2017-12-12T07:35:51.635Z,15.90
2017-12-12T07:36:51.811Z,16.80
2017-12-12T07:37:51.987Z,16.30
2017-12-12T07:38:52.078Z,15.70
2017-12-12T07:39:52.098Z,15.70
2017-12-12T07:40:52.156Z,14.30
2017-12-12T07:41:52.150Z,14.50
2017-12-12T07:42:52.238Z,12.90
2017-12-12T07:43:52.212Z,15.80
2017-12-12T07:44:52.235Z,14.90
2017-12-12T07:45:51.571Z,15.50
2017-12-12T07:46:51.597Z,14.70
2017-12-12T07:47:51.809Z,13.80
2017-12-12T07:48:52.011Z,14.70
2017-12-12T07:49:52.088Z,16.40
2017-12-12T07:50:52.320Z,15.30
2017-12-12T07:51:52.419Z,12.70
2017-12-12T07:52:51.608Z,14.10
2017-12-12T07:53:51.577Z,15.10
2017-12-12T07:54:51.859Z,15.60
2017-12-12T07:55:51.985Z,15.00
2017-12-12T07:56:52.357Z,15.20
2017-12-12T07:57:51.513Z,15.50
2017-12-12T07:58:51.695Z,15.10
2017-12-12T07:59:51.911Z,14.70
2017-12-12T08:00:52.209Z,14.70
2017-12-12T08:01:51.429Z,15.40
2017-12-12T08:02:51.551Z,13.10
2017-12-12T08:03:51.892Z,13.70
2017-12-12T08:04:52.049Z,15.60
2017-12-12T08:05:52.312Z,15.50
2017-12-12T08:06:51.685Z,15.50
2017-12-12T08:07:51.895Z,12.60
2017-12-12T08:08:51.972Z,14.30
2017-12-12T08:09:52.202Z,14.40
2017-12-12T08:10:52.332Z,13.40
2017-12-12T08:12:41.773Z,14.60
2017-12-12T08:13:42.026Z,14.80
2017-12-12T08:14:42.214Z,15.70
2017-12-12T08:15:42.470Z,15.40
2017-12-12T08:16:42.643Z,14.30
2017-12-12T08:17:41.947Z,15.00
2017-12-12T08:18:42.239Z,15.70
2017-12-12T08:20:07.277Z,12.60
2017-12-12T08:21:07.479Z,13.70
2017-12-12T08:22:07.591Z,13.50
2017-12-12T08:23:07.861Z,14.10
2017-12-12T08:24:08.005Z,13.80
2017-12-12T08:25:08.157Z,14.70
2017-12-12T08:26:07.409Z,11.30
2017-12-12T08:27:07.678Z,13.70
2017-12-12T08:28:08.108Z,14.10
2017-12-12T08:29:07.395Z,14.40
2017-12-12T08:30:07.511Z,14.20
2017-12-12T08:31:07.915Z,12.90
2017-12-12T08:32:08.345Z,13.70
2017-12-12T08:33:07.574Z,11.70
2017-12-12T08:34:07.940Z,13.10
2017-12-12T08:35:32.540Z,12.40
2017-12-12T08:36:32.885Z,11.60
2017-12-12T08:37:33.279Z,11.60
2017-12-12T08:38:32.682Z,12.10
2017-12-12T08:39:33.086Z,13.40
2017-12-12T08:40:33.504Z,10.10
2017-12-12T08:41:32.841Z,12.60
2017-12-12T08:42:33.098Z,11.80
2017-12-12T08:43:33.444Z,11.90
2017-12-12T08:44:32.773Z,11.70
2017-12-12T08:45:33.123Z,12.00
2017-12-12T08:46:33.325Z,12.90
2017-12-12T08:47:32.500Z,11.40
2017-12-12T08:48:32.833Z,12.30
2017-12-12T08:49:33.257Z,13.00
2017-12-12T08:50:33.437Z,13.10
2017-12-12T08:51:32.897Z,11.20
2017-12-12T08:52:33.224Z,12.60
2017-12-12T08:53:32.671Z,13.00
2017-12-12T08:54:33.132Z,11.60
2017-12-12T08:55:33.469Z,10.80
2017-12-12T08:56:32.929Z,12.00
2017-12-12T08:57:33.548Z,12.80
2017-12-12T08:58:35.423Z,11.80
2017-12-12T08:59:32.681Z,10.90
2017-12-12T09:00:34.172Z,12.10
2017-12-12T09:01:33.423Z,11.70
2017-12-12T09:02:32.791Z,11.70
2017-12-12T09:03:33.262Z,12.40
2017-12-12T09:04:33.409Z,12.10
2017-12-12T09:05:32.792Z,10.70
2017-12-12T09:06:33.387Z,12.10
2017-12-12T09:07:32.655Z,12.30
2017-12-12T09:08:33.041Z,12.00
2017-12-12T09:09:33.368Z,11.30
2017-12-12T09:10:32.834Z,10.40
2017-12-12T09:11:33.597Z,11.10
2017-12-12T09:12:32.845Z,10.90
2017-12-12T09:13:33.168Z,11.60
2017-12-12T09:14:58.044Z,10.80
2017-12-12T09:15:59.187Z,9.20
2017-12-12T09:16:58.689Z,11.40
2017-12-12T09:17:58.971Z,11.40
2017-12-12T09:18:58.406Z,11.60
2017-12-12T09:19:58.873Z,11.00
2017-12-12T09:20:58.307Z,10.80
2017-12-12T09:21:58.750Z,11.30
2017-12-12T09:22:58.066Z,9.00
2017-12-12T09:23:58.348Z,11.60
2017-12-12T09:24:58.793Z,12.10
2017-12-12T09:25:58.247Z,10.60
2017-12-12T09:26:58.571Z,11.10
2017-12-12T09:27:58.764Z,11.10
2017-12-12T09:28:57.978Z,11.30
2017-12-12T09:29:58.225Z,10.90
2017-12-12T09:30:58.785Z,10.10
2017-12-12T09:31:58.108Z,8.90
2017-12-12T09:32:58.473Z,9.70
2017-12-12T09:33:59.073Z,8.70
2017-12-12T09:34:58.487Z,10.70
2017-12-12T09:35:58.750Z,9.70
2017-12-12T09:36:58.196Z,9.20
2017-12-12T09:37:58.701Z,10.50
2017-12-12T09:38:58.180Z,10.40
2017-12-12T09:39:58.530Z,9.80
2017-12-12T09:40:58.883Z,9.60
2017-12-12T09:41:58.397Z,10.10
2017-12-12T09:42:58.625Z,9.20
2017-12-12T09:43:58.854Z,10.90
2017-12-12T09:44:58.246Z,10.00
2017-12-12T09:45:58.621Z,9.90
2017-12-12T09:46:58.919Z,10.20
2017-12-12T09:47:58.325Z,11.20
2017-12-12T09:48:58.834Z,10.70
2017-12-12T09:49:58.329Z,9.80
2017-12-12T09:50:58.992Z,9.60
2017-12-12T09:51:59.196Z,10.80
2017-12-12T09:52:58.572Z,9.80
2017-12-12T09:53:58.017Z,10.10
2017-12-12T09:54:58.662Z,10.40
2017-12-12T09:55:58.068Z,10.10
2017-12-12T09:56:58.354Z,9.50
2017-12-12T09:57:58.530Z,10.90
2017-12-12T09:58:58.716Z,10.50
2017-12-12T09:59:58.023Z,10.70
2017-12-12T10:00:58.324Z,8.70
2017-12-12T10:01:58.583Z,11.40
2017-12-12T10:02:58.845Z,11.70
2017-12-12T10:03:58.132Z,14.20
2017-12-12T10:04:58.356Z,13.30
2017-12-12T10:05:58.650Z,13.50
2017-12-12T10:06:57.967Z,13.20
2017-12-12T10:07:58.312Z,13.70
2017-12-12T10:09:23.380Z,13.80
2017-12-12T10:10:48.521Z,13.20
2017-12-12T10:11:48.756Z,14.20
2017-12-12T10:12:48.878Z,14.20
2017-12-12T10:13:49.172Z,15.70
2017-12-12T10:14:49.438Z,16.60
2017-12-12T10:15:48.662Z,13.60
2017-12-12T10:16:48.894Z,16.50
2017-12-12T10:17:49.682Z,16.50
2017-12-12T10:18:49.431Z,16.80
2017-12-12T10:19:49.084Z,17.50
2017-12-12T10:20:49.402Z,16.70
2017-12-12T10:22:15.771Z,0.00
2017-12-12T10:23:16.095Z,17.60
2017-12-12T10:24:41.743Z,16.60
2017-12-12T10:25:42.692Z,15.30
2017-12-12T10:26:41.879Z,13.50
2017-12-12T10:27:42.101Z,13.40
2017-12-12T10:28:42.214Z,15.60
2017-12-12T10:29:42.570Z,15.70
2017-12-12T10:30:41.844Z,15.50
2017-12-12T10:31:42.072Z,15.00
2017-12-12T10:32:42.316Z,14.40
2017-12-12T10:33:42.608Z,15.10
2017-12-12T10:34:41.829Z,15.40
2017-12-12T10:35:42.027Z,14.10
2017-12-12T10:36:42.233Z,14.80
2017-12-12T10:37:42.538Z,12.60
2017-12-12T10:38:41.804Z,13.40
2017-12-12T10:39:41.999Z,13.00
2017-12-12T10:40:42.428Z,14.80
2017-12-12T10:41:42.829Z,13.50
2017-12-12T10:42:41.921Z,12.90
2017-12-12T10:43:42.206Z,11.40
2017-12-12T10:44:42.533Z,14.20
2017-12-12T10:45:41.849Z,14.30
2017-12-12T10:46:41.908Z,14.80
2017-12-12T10:47:42.286Z,14.40
2017-12-12T10:48:42.316Z,14.40
2017-12-12T10:49:42.669Z,11.80
2017-12-12T10:50:41.866Z,11.20
2017-12-12T10:51:41.905Z,11.70
2017-12-12T10:52:42.018Z,8.80
2017-12-12T10:53:42.197Z,11.30
2017-12-12T10:54:42.454Z,12.10
2017-12-12T10:55:42.593Z,11.80
2017-12-12T10:56:42.673Z,13.00
2017-12-12T10:57:41.769Z,11.90
2017-12-12T10:58:41.763Z,9.80
2017-12-12T10:59:42.387Z,9.80
2017-12-12T11:01:07.522Z,10.60
2017-12-12T11:02:07.743Z,11.20
2017-12-12T11:03:08.003Z,11.80
2017-12-12T11:04:08.330Z,7.80
2017-12-12T11:05:07.675Z,10.20
2017-12-12T11:06:08.137Z,11.10
2017-12-12T11:07:08.336Z,11.20
2017-12-12T11:08:08.384Z,11.40
2017-12-12T11:09:07.623Z,12.10
2017-12-12T11:10:08.094Z,10.60
2017-12-12T11:11:08.323Z,11.10
2017-12-12T11:12:07.491Z,9.70
2017-12-12T11:13:07.755Z,11.30
2017-12-12T11:14:08.184Z,11.50
2017-12-12T11:15:08.396Z,10.60
2017-12-12T11:16:07.924Z,10.20
2017-12-12T11:17:08.292Z,8.60
2017-12-12T11:18:07.537Z,9.60
2017-12-12T11:19:07.583Z,10.90
2017-12-12T11:20:07.843Z,10.90
2017-12-12T11:21:08.340Z,10.90
2017-12-12T11:22:07.624Z,10.00
2017-12-12T11:23:07.836Z,9.20
2017-12-12T11:24:08.064Z,8.00
2017-12-12T11:25:34.730Z,0.00
2017-12-12T11:26:59.903Z,7.50
2017-12-12T11:28:00.943Z,8.90
2017-12-12T11:29:00.131Z,7.10
2017-12-12T11:30:24.513Z,8.10
2017-12-12T11:31:24.603Z,7.50
2017-12-12T11:32:24.764Z,6.20
2017-12-12T11:33:24.877Z,8.00
2017-12-12T11:34:25.086Z,7.70
2017-12-12T11:35:25.311Z,8.20
2017-12-12T11:36:25.558Z,7.80
2017-12-12T11:37:24.773Z,8.10
2017-12-12T11:38:25.067Z,7.20
2017-12-12T11:39:25.273Z,6.10
2017-12-12T11:40:25.464Z,8.00
2017-12-12T11:41:48.649Z,7.90
2017-12-12T11:42:48.945Z,7.50
2017-12-12T11:43:49.195Z,7.70
2017-12-12T11:44:49.366Z,8.20
2017-12-12T11:46:14.317Z,7.50
2017-12-12T11:47:14.817Z,7.00
2017-12-12T11:48:15.173Z,7.30
2017-12-12T11:49:14.348Z,7.50
2017-12-12T11:50:14.515Z,6.70
2017-12-12T11:51:14.813Z,7.40
2017-12-12T11:52:14.923Z,7.10
2017-12-12T11:53:16.383Z,6.60
2017-12-12T11:54:14.595Z,7.70
2017-12-12T11:56:03.371Z,7.40
2017-12-12T11:57:03.778Z,7.40
2017-12-12T11:58:04.028Z,8.60
2017-12-12T11:59:04.320Z,8.10
2017-12-12T12:00:04.452Z,7.00
2017-12-12T12:01:03.787Z,6.50
2017-12-12T12:02:04.175Z,6.70
2017-12-12T12:03:05.376Z,6.60
2017-12-12T12:04:03.668Z,5.80
2017-12-12T12:05:03.857Z,6.40
2017-12-12T12:06:27.983Z,6.40
2017-12-12T12:07:28.128Z,6.80
2017-12-12T12:08:28.250Z,6.80
2017-12-12T12:09:29.418Z,6.70
2017-12-12T12:10:28.633Z,6.70
2017-12-12T12:11:28.963Z,8.30
2017-12-12T12:12:28.244Z,8.10
2017-12-12T12:13:28.650Z,7.10
2017-12-12T12:14:28.876Z,8.00
2017-12-12T12:15:28.262Z,7.40
2017-12-12T12:16:29.054Z,6.90
2017-12-12T12:17:28.985Z,6.70
2017-12-12T12:18:28.475Z,6.30
2017-12-12T12:19:30.054Z,6.00
2017-12-12T12:20:35.670Z,5.70
2017-12-12T12:22:07.432Z,5.70
2017-12-12T12:23:04.930Z,5.70
2017-12-12T12:24:04.325Z,5.10
2017-12-12T12:25:04.585Z,5.60
2017-12-12T12:26:03.832Z,5.30
2017-12-12T12:27:04.354Z,4.90
2017-12-12T12:28:04.649Z,4.80
2017-12-12T12:29:03.824Z,5.00
2017-12-12T12:30:04.939Z,5.00
2017-12-12T12:31:04.056Z,4.60
2017-12-12T12:32:04.217Z,4.70
2017-12-12T12:33:03.478Z,4.50
2017-12-12T12:34:03.642Z,4.30
2017-12-12T12:35:04.456Z,4.40
2017-12-12T12:36:03.778Z,4.40
2017-12-12T12:37:03.968Z,4.50
2017-12-12T12:38:04.192Z,4.90
2017-12-12T12:39:04.238Z,5.30
2017-12-12T12:40:04.489Z,5.60
2017-12-12T12:41:03.631Z,5.50
2017-12-12T12:42:03.837Z,4.90
2017-12-12T12:43:04.020Z,4.60
2017-12-12T12:44:04.261Z,5.20
2017-12-12T12:45:03.586Z,5.50
2017-12-12T12:46:03.946Z,5.50
2017-12-12T12:47:04.257Z,5.20
2017-12-12T12:48:04.292Z,5.90
2017-12-12T12:49:04.325Z,6.20
2017-12-12T12:50:03.545Z,6.10
2017-12-12T12:51:03.773Z,5.60
2017-12-12T12:52:03.864Z,6.20
2017-12-12T12:53:04.018Z,5.00
2017-12-12T12:54:04.355Z,4.90
2017-12-12T12:55:03.745Z,4.90
2017-12-12T12:56:03.899Z,4.30
2017-12-12T12:57:04.110Z,5.10
2017-12-12T12:58:04.322Z,5.50
2017-12-12T12:59:03.738Z,5.50
2017-12-12T13:00:03.934Z,6.60
2017-12-12T13:01:04.181Z,6.70
2017-12-12T13:02:04.327Z,6.70
2017-12-12T13:03:03.840Z,6.20
2017-12-12T13:04:04.122Z,6.40
2017-12-12T13:05:04.517Z,6.70
2017-12-12T13:06:03.980Z,7.00
2017-12-12T13:07:04.627Z,7.30
2017-12-12T13:08:03.863Z,7.30
2017-12-12T13:09:04.158Z,7.80
2017-12-12T13:10:04.229Z,8.50
2017-12-12T13:11:04.521Z,8.10
2017-12-12T13:12:03.843Z,7.70
2017-12-12T13:13:04.228Z,7.70
2017-12-12T13:14:04.635Z,8.60
2017-12-12T13:15:04.399Z,9.80
2017-12-12T13:16:03.546Z,9.30